Time;durP1;ratioP1;P1;durP2;ratioP2;P2;SDS_P1;SDS_P2;PMS_P1;PMS_P2;Temp;Humidity;BMP_temperature;BMP_pressure;BME280_temperature;BME280_humidity;BME280_pressure;Samples;Min_cycle;Max_cycle;Signal;HPM_P1;HPM_P2
2022/11/14 00:00:00;;;;;;;17.03;16.13;;;8.20;38.50;;;;;;4945154;28;20517;-56
2022/11/14 00:02:26;;;;;;;16.77;15.87;;;8.30;38.00;;;;;;4947176;28;20226;-56
2022/11/14 00:04:52;;;;;;;16.73;15.77;;;8.30;37.80;;;;;;4944178;28;20454;-56
2022/11/14 00:07:18;;;;;;;16.80;15.80;;;8.30;37.50;;;;;;4948025;28;20500;-55
2022/11/14 00:09:44;;;;;;;16.63;15.73;;;8.30;37.70;;;;;;4942259;28;20261;-55
2022/11/14 00:12:10;;;;;;;17.27;16.20;;;8.20;37.90;;;;;;4943865;28;20453;-56
2022/11/14 00:14:37;;;;;;;17.20;16.30;;;7.90;38.30;;;;;;4943630;28;20238;-55
2022/11/14 00:17:03;;;;;;;17.17;16.17;;;7.80;39.10;;;;;;4945334;28;20464;-51
2022/11/14 00:19:30;;;;;;;18.50;17.47;;;8.00;38.80;;;;;;4944347;28;20492;-51
2022/11/14 00:21:55;;;;;;;16.87;15.87;;;7.90;39.10;;;;;;4944103;28;20454;-53
2022/11/14 00:24:21;;;;;;;16.77;15.80;;;7.80;39.40;;;;;;4944876;28;20489;-53
2022/11/14 00:26:47;;;;;;;17.60;16.70;;;7.70;39.40;;;;;;4942910;28;21341;-53
2022/11/14 00:29:14;;;;;;;17.80;16.87;;;7.50;40.40;;;;;;4945236;28;20446;-55
2022/11/14 00:31:40;;;;;;;16.53;15.60;;;7.50;40.50;;;;;;4942874;28;20985;-51
2022/11/14 00:34:06;;;;;;;17.30;16.30;;;7.60;40.60;;;;;;4942754;28;20458;-54
2022/11/14 00:36:32;;;;;;;17.67;16.57;;;7.80;40.20;;;;;;4944274;28;20449;-51
2022/11/14 00:38:57;;;;;;;16.63;15.60;;;7.90;39.00;;;;;;4942867;28;20404;-54
2022/11/14 00:41:23;;;;;;;19.00;17.90;;;8.00;39.10;;;;;;4940910;28;20260;-53
2022/11/14 00:43:49;;;;;;;19.17;18.17;;;7.90;38.70;;;;;;4941463;28;20237;-51
2022/11/14 00:46:15;;;;;;;17.60;16.60;;;7.90;38.70;;;;;;4943942;28;20226;-54
2022/11/14 00:48:41;;;;;;;18.70;17.60;;;7.70;39.20;;;;;;4940742;28;20449;-52
2022/11/14 00:51:07;;;;;;;18.10;17.10;;;7.60;40.60;;;;;;4945989;28;20449;-52
2022/11/14 00:53:33;;;;;;;18.33;17.33;;;7.60;40.40;;;;;;4943040;28;20464;-50
2022/11/14 00:55:59;;;;;;;17.90;16.90;;;7.60;40.60;;;;;;4942251;28;20466;-53
2022/11/14 00:58:24;;;;;;;18.93;17.83;;;7.90;40.60;;;;;;4941631;28;20234;-53
2022/11/14 01:00:51;;;;;;;18.33;17.33;;;8.10;39.00;;;;;;4944436;28;20597;-53
2022/11/14 01:03:17;;;;;;;17.40;16.40;;;8.20;39.10;;;;;;4942140;28;20265;-50
2022/11/14 01:05:47;;;;;;;16.73;15.83;;;8.30;38.60;;;;;;4945194;28;20993;-52
2022/11/14 01:08:13;;;;;;;18.00;17.00;;;8.50;37.80;;;;;;4944543;28;20987;-54
2022/11/14 01:10:44;;;;;;;18.20;17.13;;;8.70;36.50;;;;;;4942459;28;20845;-53
2022/11/14 01:13:10;;;;;;;18.20;17.17;;;8.90;35.80;;;;;;4942414;28;20468;-53
2022/11/14 01:15:44;;;;;;;17.87;16.87;;;9.00;34.90;;;;;;4944960;28;20904;-51
2022/11/14 01:18:12;;;;;;;16.47;15.57;;;9.00;34.70;;;;;;4944727;28;20513;-53
2022/11/14 01:20:43;;;;;;;16.10;15.30;;;9.00;34.20;;;;;;4949980;28;20469;-52
2022/11/14 01:23:10;;;;;;;16.93;15.97;;;9.10;34.00;;;;;;4946765;28;20462;-53
2022/11/14 01:25:37;;;;;;;16.93;16.00;;;9.10;33.50;;;;;;4947203;28;20516;-50
2022/11/14 01:28:14;;;;;;;17.63;16.43;;;9.10;33.20;;;;;;4943284;28;20461;-53
2022/11/14 01:30:40;;;;;;;16.77;15.80;;;9.00;33.20;;;;;;4946695;28;20829;-56
2022/11/14 01:33:06;;;;;;;16.00;15.10;;;9.00;33.20;;;;;;4945907;28;20491;-56
2022/11/14 01:35:33;;;;;;;15.70;14.80;;;9.00;33.10;;;;;;4948464;28;20849;-56
2022/11/14 01:38:00;;;;;;;17.20;16.20;;;9.00;33.00;;;;;;4945355;28;20763;-55
2022/11/14 01:40:25;;;;;;;16.43;15.50;;;9.00;32.90;;;;;;4949024;28;20466;-53
2022/11/14 01:43:10;;;;;;;17.63;16.63;;;8.90;34.20;;;;;;4945013;28;20527;-52
2022/11/14 01:45:47;;;;;;;16.63;15.70;;;9.00;33.80;;;;;;4949209;28;20316;-53
2022/11/14 01:48:25;;;;;;;16.00;15.10;;;9.10;33.40;;;;;;4942921;28;20544;-56
2022/11/14 01:50:57;;;;;;;17.47;16.47;;;9.10;33.10;;;;;;4945740;28;21196;-56
2022/11/14 01:53:23;;;;;;;17.17;16.10;;;9.10;32.60;;;;;;4945862;28;20449;-58
2022/11/14 01:55:51;;;;;;;16.53;15.53;;;9.10;32.60;;;;;;4944219;28;20827;-55
2022/11/14 01:58:17;;;;;;;16.93;15.93;;;9.10;32.70;;;;;;4943578;28;20445;-56
2022/11/14 02:00:43;;;;;;;16.37;15.47;;;9.20;32.70;;;;;;4946248;28;20465;-56
2022/11/14 02:03:12;;;;;;;16.50;15.60;;;9.20;32.30;;;;;;4939849;28;20449;-56
2022/11/14 02:05:38;;;;;;;16.63;15.73;;;9.20;32.10;;;;;;4945219;28;20446;-57
2022/11/14 02:08:04;;;;;;;15.97;15.17;;;9.20;32.40;;;;;;4942853;28;20508;-57
2022/11/14 02:10:30;;;;;;;16.30;15.40;;;9.20;32.50;;;;;;4946293;28;20498;-57
2022/11/14 02:12:55;;;;;;;17.37;16.37;;;9.20;32.50;;;;;;4942920;28;20226;-56
2022/11/14 02:15:21;;;;;;;17.13;16.17;;;9.10;32.10;;;;;;4944364;28;20718;-57
2022/11/14 02:17:47;;;;;;;17.13;16.20;;;8.80;33.00;;;;;;4941794;28;20714;-55
2022/11/14 02:20:12;;;;;;;17.40;16.40;;;8.70;34.40;;;;;;4945375;28;20245;-52
2022/11/14 02:22:40;;;;;;;16.77;15.77;;;8.70;34.00;;;;;;4941969;28;20262;-56
2022/11/14 02:25:07;;;;;;;17.87;16.87;;;8.50;34.60;;;;;;4943624;28;20234;-56
2022/11/14 02:27:35;;;;;;;17.97;16.90;;;8.20;35.10;;;;;;4944009;28;20480;-56
2022/11/14 02:30:11;;;;;;;17.57;16.57;;;8.20;36.30;;;;;;4943230;28;20565;-55
2022/11/14 02:32:37;;;;;;;19.23;18.13;;;8.20;36.10;;;;;;4943243;28;20860;-55
2022/11/14 02:35:02;;;;;;;17.47;16.47;;;8.20;36.00;;;;;;4946084;28;20497;-54
2022/11/14 02:37:28;;;;;;;18.53;17.43;;;8.30;36.60;;;;;;4946618;28;20230;-54
2022/11/14 02:39:54;;;;;;;19.23;18.03;;;7.90;38.00;;;;;;4942791;28;20238;-54
2022/11/14 02:42:19;;;;;;;19.57;18.47;;;7.70;39.10;;;;;;4946585;28;20230;-56
2022/11/14 02:44:45;;;;;;;20.73;19.53;;;7.40;40.60;;;;;;4944076;28;20253;-55
2022/11/14 02:47:10;;;;;;;18.03;17.03;;;7.30;41.90;;;;;;4946135;28;20272;-51
2022/11/14 02:49:36;;;;;;;20.10;19.00;;;7.20;42.30;;;;;;4943704;28;21272;-52
2022/11/14 02:52:02;;;;;;;18.17;17.17;;;7.20;42.70;;;;;;4945255;28;20235;-53
2022/11/14 02:54:27;;;;;;;19.63;18.37;;;7.30;42.30;;;;;;4942361;28;20234;-56
2022/11/14 02:56:53;;;;;;;19.33;18.13;;;7.30;42.20;;;;;;4929229;28;20439;-56
2022/11/14 02:59:19;;;;;;;19.00;17.60;;;7.40;42.00;;;;;;4945317;28;21283;-53
2022/11/14 03:01:44;;;;;;;20.77;19.57;;;7.40;41.80;;;;;;4947077;28;20227;-54
2022/11/14 03:04:10;;;;;;;19.90;18.70;;;7.50;41.70;;;;;;4945673;28;20325;-56
2022/11/14 03:06:35;;;;;;;18.97;17.97;;;7.40;42.10;;;;;;4942071;28;20695;-53
2022/11/14 03:09:01;;;;;;;19.47;18.37;;;7.10;42.60;;;;;;4946127;28;20249;-57
2022/11/14 03:11:27;;;;;;;19.77;18.60;;;6.90;43.60;;;;;;4944648;28;20857;-55
2022/11/14 03:13:52;;;;;;;19.93;18.77;;;6.60;43.90;;;;;;4944736;28;20226;-54
2022/11/14 03:16:18;;;;;;;19.33;18.27;;;6.40;45.00;;;;;;4944602;28;21217;-55
2022/11/14 03:18:44;;;;;;;19.30;18.20;;;6.40;45.80;;;;;;4947466;28;20227;-53
2022/11/14 03:21:13;;;;;;;20.33;19.13;;;6.30;46.00;;;;;;4944514;28;20458;-55
2022/11/14 03:23:39;;;;;;;19.70;18.60;;;6.00;46.50;;;;;;4944446;28;20280;-56
2022/11/14 03:26:07;;;;;;;20.37;19.17;;;5.90;47.20;;;;;;4942239;28;20548;-54
2022/11/14 03:28:34;;;;;;;20.70;19.50;;;5.90;47.70;;;;;;4945177;28;20695;-54
2022/11/14 03:30:59;;;;;;;19.20;18.10;;;5.80;48.10;;;;;;4946533;28;20465;-55
2022/11/14 03:33:25;;;;;;;19.27;18.20;;;6.00;48.10;;;;;;4942646;28;20962;-55
2022/11/14 03:35:52;;;;;;;18.67;17.57;;;6.10;47.50;;;;;;4946961;28;20746;-56
2022/11/14 03:38:21;;;;;;;19.93;18.83;;;6.20;46.70;;;;;;4941752;28;20483;-55
2022/11/14 03:40:48;;;;;;;20.50;19.30;;;6.10;46.30;;;;;;4942430;28;20986;-55
2022/11/14 03:43:13;;;;;;;19.23;18.23;;;6.10;46.90;;;;;;4941797;28;20953;-56
2022/11/14 03:45:39;;;;;;;19.80;18.60;;;6.00;46.80;;;;;;4943996;28;20544;-55
2022/11/14 03:48:05;;;;;;;18.33;17.43;;;6.00;47.10;;;;;;4941374;28;20226;-55
2022/11/14 03:50:31;;;;;;;18.67;17.57;;;5.90;47.30;;;;;;4942387;28;20868;-56
2022/11/14 03:52:57;;;;;;;19.27;18.17;;;6.00;48.30;;;;;;4941080;28;20454;-56
2022/11/14 03:55:22;;;;;;;18.60;17.57;;;6.20;46.90;;;;;;4939161;28;20325;-56
2022/11/14 03:57:48;;;;;;;18.93;17.90;;;6.50;46.20;;;;;;4943693;28;20281;-57
2022/11/14 04:00:15;;;;;;;19.43;18.33;;;6.60;45.30;;;;;;4945978;28;20257;-57
2022/11/14 04:02:40;;;;;;;18.33;17.33;;;6.80;45.10;;;;;;4945463;28;20238;-53
2022/11/14 04:05:07;;;;;;;17.33;16.47;;;6.90;43.40;;;;;;4940143;28;20881;-52
2022/11/14 04:07:32;;;;;;;18.83;17.80;;;7.00;43.60;;;;;;4944811;28;20449;-55
2022/11/14 04:09:58;;;;;;;17.03;16.20;;;7.30;43.40;;;;;;4940286;28;20863;-50
2022/11/14 04:12:24;;;;;;;18.40;17.40;;;7.60;41.90;;;;;;4944747;28;20272;-51
2022/11/14 04:14:49;;;;;;;17.63;16.67;;;7.70;40.70;;;;;;4944227;28;20542;-52
2022/11/14 04:17:15;;;;;;;17.17;16.27;;;7.90;40.30;;;;;;4945374;28;20257;-50
2022/11/14 04:19:41;;;;;;;17.90;17.00;;;8.10;38.50;;;;;;4946042;28;20230;-54
2022/11/14 04:22:06;;;;;;;18.33;17.33;;;8.20;39.10;;;;;;4944716;28;20254;-56
2022/11/14 04:24:32;;;;;;;16.80;16.00;;;8.30;38.10;;;;;;4946035;28;20787;-56
2022/11/14 04:26:57;;;;;;;17.93;17.00;;;8.40;37.80;;;;;;4943411;28;20435;-56
2022/11/14 04:29:23;;;;;;;16.23;15.43;;;8.20;36.60;;;;;;4947145;28;20238;-54
2022/11/14 04:31:49;;;;;;;17.10;16.30;;;8.00;37.40;;;;;;4944970;28;20226;-51
2022/11/14 04:34:15;;;;;;;16.17;15.37;;;8.10;38.00;;;;;;4945316;28;20296;-52
2022/11/14 04:36:41;;;;;;;16.80;15.93;;;8.00;37.80;;;;;;4953697;28;20321;-51
2022/11/14 04:39:07;;;;;;;17.40;16.50;;;8.10;38.00;;;;;;4965741;28;20480;-55
2022/11/14 04:41:32;;;;;;;16.33;15.50;;;8.00;36.90;;;;;;4971949;28;20237;-53
2022/11/14 04:43:58;;;;;;;17.17;16.30;;;8.00;37.70;;;;;;4966836;28;20280;-53
2022/11/14 04:46:23;;;;;;;16.37;15.57;;;7.90;37.40;;;;;;4967836;28;20229;-53
2022/11/14 04:48:49;;;;;;;15.97;15.27;;;7.80;38.50;;;;;;4966293;28;20512;-51
2022/11/14 04:51:15;;;;;;;17.00;16.10;;;7.60;38.90;;;;;;4966286;28;20225;-51
2022/11/14 04:53:40;;;;;;;17.63;16.73;;;7.60;38.60;;;;;;4960297;28;20214;-52
2022/11/14 04:56:06;;;;;;;17.13;16.13;;;7.60;38.70;;;;;;4951851;28;20978;-52
2022/11/14 04:58:32;;;;;;;16.87;16.07;;;7.50;39.00;;;;;;4955282;28;20237;-53
2022/11/14 05:00:57;;;;;;;16.37;15.57;;;7.60;38.50;;;;;;4950516;28;20253;-53
2022/11/14 05:03:24;;;;;;;16.83;16.03;;;7.70;38.30;;;;;;4953837;28;20234;-51
2022/11/14 05:05:49;;;;;;;17.07;16.23;;;7.60;38.50;;;;;;4953941;28;20230;-53
2022/11/14 05:08:15;;;;;;;17.10;16.20;;;7.80;40.30;;;;;;4944715;28;20472;-55
2022/11/14 05:10:44;;;;;;;17.37;16.47;;;8.10;38.70;;;;;;4955354;28;20237;-53
2022/11/14 05:13:11;;;;;;;16.40;15.60;;;8.30;37.10;;;;;;4955329;28;20226;-56
2022/11/14 05:15:37;;;;;;;17.17;16.27;;;8.50;36.10;;;;;;4962755;28;20468;-55
2022/11/14 05:18:03;;;;;;;16.17;15.37;;;8.70;35.70;;;;;;4966527;28;20816;-52
2022/11/14 05:20:29;;;;;;;14.47;13.87;;;8.80;34.80;;;;;;4958044;28;20461;-50
2022/11/14 05:22:55;;;;;;;15.20;14.50;;;8.90;34.60;;;;;;4949391;28;21086;-52
2022/11/14 05:25:21;;;;;;;17.07;16.17;;;8.90;34.50;;;;;;4956314;28;20317;-53
2022/11/14 05:27:47;;;;;;;16.03;15.23;;;8.90;34.50;;;;;;4956462;28;20508;-52
2022/11/14 05:30:14;;;;;;;15.90;15.10;;;8.90;34.30;;;;;;4954695;28;20775;-51
2022/11/14 05:32:40;;;;;;;15.93;15.13;;;8.90;33.70;;;;;;4953867;28;20497;-56
2022/11/14 05:35:06;;;;;;;16.13;15.33;;;8.70;34.50;;;;;;4958053;28;20466;-49
2022/11/14 05:37:33;;;;;;;16.30;15.50;;;8.50;34.80;;;;;;4954996;28;20258;-56
2022/11/14 05:39:59;;;;;;;16.73;15.93;;;8.30;35.70;;;;;;4956327;28;20445;-55
2022/11/14 05:42:26;;;;;;;16.57;15.67;;;8.00;35.90;;;;;;4956947;28;20469;-56
2022/11/14 05:44:52;;;;;;;16.93;16.03;;;7.80;37.60;;;;;;4954521;28;20745;-56
2022/11/14 05:47:18;;;;;;;16.00;15.10;;;7.90;37.90;;;;;;4953988;28;20463;-57
2022/11/14 05:49:43;;;;;;;16.73;15.83;;;8.10;37.50;;;;;;4956940;28;20230;-55
2022/11/14 05:52:09;;;;;;;17.10;16.30;;;8.30;36.30;;;;;;4955870;28;20875;-56
2022/11/14 05:54:35;;;;;;;16.60;15.70;;;8.40;36.00;;;;;;4957354;28;20700;-55
2022/11/14 05:57:01;;;;;;;17.00;16.20;;;8.60;35.10;;;;;;4958263;28;20322;-55
2022/11/14 05:59:26;;;;;;;16.40;15.50;;;8.40;35.40;;;;;;4956569;28;20233;-55
2022/11/14 06:01:52;;;;;;;16.93;16.23;;;8.10;36.00;;;;;;4959471;28;20450;-56
2022/11/14 06:04:18;;;;;;;15.87;15.07;;;7.70;37.80;;;;;;4960772;28;20589;-55
2022/11/14 06:06:44;;;;;;;16.40;15.60;;;7.60;38.00;;;;;;4959145;28;20874;-55
2022/11/14 06:09:10;;;;;;;16.80;16.00;;;7.10;40.20;;;;;;4959644;28;20226;-56
2022/11/14 06:11:35;;;;;;;17.17;16.37;;;7.00;40.30;;;;;;4960113;28;20314;-55
2022/11/14 06:14:01;;;;;;;17.10;16.20;;;6.80;41.60;;;;;;4972971;28;20456;-56
2022/11/14 06:16:27;;;;;;;17.40;16.40;;;6.70;42.10;;;;;;4977987;28;20287;-57
2022/11/14 06:18:53;;;;;;;16.93;16.03;;;6.70;42.90;;;;;;4962738;28;20238;-56
2022/11/14 06:21:20;;;;;;;16.60;15.80;;;6.70;42.60;;;;;;4973013;28;20856;-57
2022/11/14 06:23:47;;;;;;;16.00;15.20;;;6.70;42.30;;;;;;4956210;28;20465;-57
2022/11/14 06:26:33;;;;;;;15.83;15.10;;;6.90;43.10;;;;;;4952321;28;20454;-55
2022/11/14 06:28:59;;;;;;;16.50;15.70;;;6.80;42.60;;;;;;4956748;28;20940;-56
2022/11/14 06:31:25;;;;;;;17.10;16.20;;;6.90;42.70;;;;;;4958015;28;20454;-56
2022/11/14 06:33:56;;;;;;;17.40;16.43;;;7.20;42.80;;;;;;4951336;28;20510;-56
2022/11/14 06:36:22;;;;;;;17.13;16.10;;;7.50;41.60;;;;;;4954708;28;20561;-57
2022/11/14 06:38:47;;;;;;;15.80;15.10;;;7.90;40.80;;;;;;4955911;28;20470;-58
2022/11/14 06:41:16;;;;;;;16.23;15.43;;;8.20;39.80;;;;;;4949897;28;20477;-56
2022/11/14 06:43:44;;;;;;;16.20;15.20;;;8.50;40.00;;;;;;4956591;28;20229;-53
2022/11/14 06:46:12;;;;;;;15.60;14.90;;;8.60;39.10;;;;;;4957372;28;20868;-55
2022/11/14 06:48:39;;;;;;;16.07;15.27;;;8.40;38.40;;;;;;4958324;28;20449;-56
2022/11/14 06:51:05;;;;;;;16.37;15.37;;;8.60;38.00;;;;;;4954118;28;20462;-56
2022/11/14 06:53:34;;;;;;;16.07;15.27;;;8.80;37.40;;;;;;4957592;28;20480;-56
2022/11/14 06:56:08;;;;;;;16.20;15.30;;;8.90;36.20;;;;;;4956660;28;20505;-55
2022/11/14 06:58:40;;;;;;;16.60;15.70;;;9.00;36.20;;;;;;4952701;28;20454;-55
2022/11/14 07:01:06;;;;;;;16.40;15.60;;;9.10;36.10;;;;;;4947632;28;20461;-62
2022/11/14 07:03:33;;;;;;;16.73;15.90;;;9.20;35.40;;;;;;4950563;28;20462;-56
2022/11/14 07:06:03;;;;;;;16.13;15.33;;;9.30;35.10;;;;;;4954408;28;20465;-56
2022/11/14 07:08:29;;;;;;;16.73;15.83;;;9.20;36.00;;;;;;4955639;28;20958;-54
2022/11/14 07:11:01;;;;;;;15.70;14.90;;;9.10;36.20;;;;;;4943690;28;20538;-55
2022/11/14 07:13:27;;;;;;;16.10;15.17;;;8.90;36.80;;;;;;4949970;28;20520;-54
2022/11/14 07:15:53;;;;;;;15.90;15.10;;;8.80;37.10;;;;;;4952683;28;20480;-56
2022/11/14 07:18:19;;;;;;;16.67;15.63;;;8.70;37.20;;;;;;4955134;28;20332;-56
2022/11/14 07:20:45;;;;;;;15.60;14.90;;;8.50;38.10;;;;;;4952908;28;21030;-55
2022/11/14 07:23:11;;;;;;;14.07;13.40;;;8.20;39.20;;;;;;4953759;28;20575;-56
2022/11/14 07:25:37;;;;;;;16.67;15.77;;;8.20;39.80;;;;;;4956923;28;20462;-53
2022/11/14 07:28:02;;;;;;;14.10;13.40;;;8.20;40.00;;;;;;4955461;28;20222;-53
2022/11/14 07:30:28;;;;;;;16.27;15.47;;;8.20;39.70;;;;;;4950313;28;20664;-54
2022/11/14 07:32:55;;;;;;;15.60;14.80;;;8.10;40.00;;;;;;4954519;28;20226;-55
2022/11/14 07:35:21;;;;;;;16.23;15.33;;;8.00;40.90;;;;;;4954095;28;20265;-53
2022/11/14 07:37:46;;;;;;;16.40;15.50;;;8.00;40.90;;;;;;4954361;28;20457;-49
2022/11/14 07:40:12;;;;;;;16.13;15.20;;;8.00;40.90;;;;;;4938733;28;20238;-53
2022/11/14 07:42:37;;;;;;;16.93;16.03;;;8.00;40.90;;;;;;4940527;28;20317;-55
2022/11/14 07:45:03;;;;;;;15.47;14.50;;;8.00;41.70;;;;;;4936208;28;20233;-55
2022/11/14 07:47:29;;;;;;;17.03;16.13;;;8.20;41.10;;;;;;4955260;28;20279;-56
2022/11/14 07:49:55;;;;;;;16.57;15.47;;;8.20;41.10;;;;;;4954616;28;20454;-55
2022/11/14 07:52:20;;;;;;;16.57;15.60;;;8.40;41.20;;;;;;4954838;28;22159;-56
2022/11/14 07:54:46;;;;;;;15.70;14.60;;;8.50;40.20;;;;;;4956890;28;20694;-56
2022/11/14 07:57:12;;;;;;;16.30;15.50;;;8.50;41.30;;;;;;4955714;28;20235;-56
2022/11/14 07:59:37;;;;;;;15.77;14.93;;;8.50;40.60;;;;;;4956505;28;20321;-56
2022/11/14 08:02:03;;;;;;;16.77;15.80;;;8.60;40.40;;;;;;4954298;28;20349;-56
2022/11/14 08:04:28;;;;;;;16.10;15.20;;;8.50;41.20;;;;;;4956239;28;20248;-55
2022/11/14 08:06:54;;;;;;;17.17;16.23;;;8.50;41.30;;;;;;4953907;28;20241;-56
2022/11/14 08:09:21;;;;;;;17.53;16.53;;;8.40;41.20;;;;;;4973421;28;20225;-55
2022/11/14 08:11:47;;;;;;;17.80;16.80;;;8.50;41.40;;;;;;4958988;28;20229;-56
2022/11/14 08:14:14;;;;;;;17.53;16.33;;;8.60;41.40;;;;;;4973942;28;20445;-56
2022/11/14 08:16:39;;;;;;;17.20;16.17;;;8.70;41.50;;;;;;4975745;28;20974;-56
2022/11/14 08:19:05;;;;;;;16.97;16.07;;;8.90;40.70;;;;;;4973760;28;21076;-56
2022/11/14 08:21:31;;;;;;;15.97;14.87;;;8.80;40.90;;;;;;4977808;28;20312;-53
2022/11/14 08:23:56;;;;;;;15.93;14.93;;;8.80;41.60;;;;;;4973850;28;20226;-53
2022/11/14 08:26:22;;;;;;;15.90;15.00;;;8.80;41.60;;;;;;4976210;28;20706;-54
2022/11/14 08:28:52;;;;;;;16.43;15.50;;;8.80;42.50;;;;;;4973528;28;20258;-57
2022/11/14 08:31:18;;;;;;;14.10;13.30;;;8.80;43.60;;;;;;4976335;28;20229;-57
2022/11/14 08:33:43;;;;;;;13.60;12.87;;;8.80;44.20;;;;;;4974611;28;20786;-57
2022/11/14 08:36:10;;;;;;;12.30;11.60;;;8.90;45.50;;;;;;4975346;28;20268;-57
2022/11/14 08:38:36;;;;;;;12.90;12.10;;;8.80;47.20;;;;;;4975657;28;20253;-56
2022/11/14 08:41:02;;;;;;;12.20;11.70;;;8.70;49.10;;;;;;4974181;28;20536;-56
2022/11/14 08:43:29;;;;;;;12.40;11.70;;;8.60;51.20;;;;;;4974995;28;20457;-57
2022/11/14 08:46:03;;;;;;;11.23;10.53;;;8.60;52.50;;;;;;4975135;28;20471;-54
2022/11/14 08:48:29;;;;;;;12.37;11.37;;;8.70;53.40;;;;;;4976519;28;20493;-56
2022/11/14 08:50:55;;;;;;;10.57;10.03;;;8.70;54.00;;;;;;4974392;28;20453;-56
2022/11/14 08:53:20;;;;;;;10.40;9.63;;;8.80;55.30;;;;;;4976588;28;20457;-56
2022/11/14 08:55:47;;;;;;;9.63;9.03;;;8.90;55.70;;;;;;4974909;28;20264;-56
2022/11/14 08:58:14;;;;;;;8.30;7.90;;;9.00;55.70;;;;;;4975677;28;20986;-56
2022/11/14 09:00:39;;;;;;;9.53;9.03;;;9.00;55.70;;;;;;4971992;28;21181;-57
2022/11/14 09:03:09;;;;;;;8.70;8.20;;;9.10;56.30;;;;;;4975027;28;20457;-55
2022/11/14 09:05:35;;;;;;;9.57;9.07;;;9.20;56.50;;;;;;4976346;28;20230;-56
2022/11/14 09:08:02;;;;;;;8.00;7.50;;;9.20;57.00;;;;;;4976446;28;20961;-56
2022/11/14 09:10:28;;;;;;;7.70;7.10;;;9.40;57.30;;;;;;4971355;28;20520;-57
2022/11/14 09:13:01;;;;;;;8.20;7.80;;;9.40;57.10;;;;;;4973714;28;21198;-56
2022/11/14 09:15:27;;;;;;;8.30;7.80;;;9.50;57.60;;;;;;4977780;28;20508;-56
2022/11/14 09:17:54;;;;;;;8.70;8.30;;;9.60;57.30;;;;;;4975647;28;20446;-57
2022/11/14 09:20:22;;;;;;;8.33;7.70;;;9.60;56.70;;;;;;4975977;28;20516;-59
2022/11/14 09:22:49;;;;;;;8.43;7.93;;;9.60;56.30;;;;;;4977853;28;20501;-56
2022/11/14 09:25:14;;;;;;;8.80;8.40;;;9.60;56.40;;;;;;4973994;28;20957;-56
2022/11/14 09:27:40;;;;;;;8.70;8.20;;;9.70;56.10;;;;;;4973521;28;20471;-54
2022/11/14 09:30:06;;;;;;;9.03;8.40;;;9.70;56.20;;;;;;4977962;28;20329;-54
2022/11/14 09:32:32;;;;;;;9.60;9.20;;;9.90;56.90;;;;;;4976097;28;20317;-54
2022/11/14 09:34:57;;;;;;;7.83;7.53;;;9.90;56.90;;;;;;4972228;28;20571;-53
2022/11/14 09:37:23;;;;;;;9.60;9.10;;;10.00;55.10;;;;;;4976985;28;20800;-57
2022/11/14 09:39:49;;;;;;;8.97;8.67;;;10.20;55.60;;;;;;4978589;28;20225;-55
2022/11/14 09:42:30;;;;;;;9.63;9.23;;;10.20;54.00;;;;;;4977676;28;20225;-57
2022/11/14 09:45:09;;;;;;;10.70;10.20;;;10.30;53.20;;;;;;4980486;28;20630;-54
2022/11/14 09:47:53;;;;;;;9.67;9.27;;;10.40;52.90;;;;;;4980248;28;20445;-56
2022/11/14 09:50:24;;;;;;;9.80;9.40;;;10.40;51.70;;;;;;4977627;28;20460;-56
2022/11/14 09:52:56;;;;;;;9.97;9.67;;;10.40;51.70;;;;;;4979835;28;20794;-56
2022/11/14 09:55:27;;;;;;;9.90;9.40;;;10.40;51.70;;;;;;4979453;28;20465;-55
2022/11/14 09:57:54;;;;;;;10.07;9.67;;;10.40;51.90;;;;;;4978740;28;20457;-55
2022/11/14 10:00:27;;;;;;;10.10;9.60;;;10.40;52.40;;;;;;4977990;28;21245;-56
2022/11/14 10:03:06;;;;;;;9.80;9.20;;;10.50;52.20;;;;;;4978194;28;20463;-52
2022/11/14 10:05:50;;;;;;;11.20;10.70;;;10.50;52.30;;;;;;4978734;28;20492;-52
2022/11/14 10:08:34;;;;;;;10.40;9.90;;;10.50;52.30;;;;;;4976943;28;20455;-55
2022/11/14 10:11:15;;;;;;;9.80;9.30;;;10.50;52.40;;;;;;4976354;28;20917;-53
2022/11/14 10:14:17;;;;;;;9.77;9.27;;;10.70;52.70;;;;;;4977570;28;20464;-54
2022/11/14 10:17:01;;;;;;;10.20;9.80;;;10.80;52.10;;;;;;4975454;28;20452;-55
2022/11/14 10:20:17;;;;;;;10.33;9.83;;;10.70;51.50;;;;;;4976723;28;20531;-55
2022/11/14 10:23:04;;;;;;;11.77;10.60;;;10.80;52.10;;;;;;4886978;28;20452;-56
2022/11/14 10:25:47;;;;;;;11.00;10.50;;;10.90;52.20;;;;;;4978527;28;20481;-57
2022/11/14 10:28:31;;;;;;;10.93;10.33;;;11.00;52.30;;;;;;4975110;28;20445;-58
2022/11/14 10:31:21;;;;;;;9.90;9.50;;;10.90;50.80;;;;;;4973427;28;20832;-58
2022/11/14 10:34:01;;;;;;;9.63;9.13;;;10.90;50.50;;;;;;4975974;28;20453;-57
2022/11/14 10:36:35;;;;;;;10.63;10.13;;;11.00;50.50;;;;;;4978143;28;20461;-56
2022/11/14 10:39:20;;;;;;;10.00;9.50;;;11.10;50.30;;;;;;4976485;28;20468;-55
2022/11/14 10:41:49;;;;;;;9.30;8.90;;;11.20;49.80;;;;;;4975406;28;20449;-57
2022/11/14 10:44:21;;;;;;;9.90;9.50;;;11.20;49.70;;;;;;4977643;28;20871;-56
2022/11/14 10:46:52;;;;;;;11.87;10.97;;;11.20;49.70;;;;;;4974342;28;20543;-56
2022/11/14 10:49:24;;;;;;;11.70;11.00;;;11.10;49.80;;;;;;4977962;28;20453;-56
2022/11/14 10:51:51;;;;;;;11.20;10.60;;;11.10;50.30;;;;;;4975870;28;20515;-58
2022/11/14 10:54:32;;;;;;;10.43;9.87;;;11.20;50.60;;;;;;4977817;28;20460;-57
2022/11/14 10:56:58;;;;;;;11.20;10.60;;;11.30;50.20;;;;;;4976067;28;20878;-57
2022/11/14 10:59:26;;;;;;;11.03;10.50;;;11.30;50.00;;;;;;4977818;28;20481;-55
2022/11/14 11:01:56;;;;;;;10.93;10.33;;;11.40;49.90;;;;;;4976136;28;20240;-56
2022/11/14 11:04:32;;;;;;;10.97;10.47;;;11.40;49.40;;;;;;4976458;28;20461;-55
2022/11/14 11:07:06;;;;;;;10.57;10.03;;;11.40;49.70;;;;;;4975966;28;20510;-56
2022/11/14 11:12:37;;;;;;;11.20;10.60;;;11.60;49.40;;;;;;4978534;28;20511;-56
2022/11/14 11:15:17;;;;;;;10.97;10.27;;;11.70;48.20;;;;;;4976458;28;20464;-55
2022/11/14 11:18:00;;;;;;;10.33;9.93;;;11.80;48.60;;;;;;4975922;28;20523;-56
2022/11/14 11:20:29;;;;;;;10.70;10.20;;;11.90;49.30;;;;;;4976234;28;20484;-56
2022/11/14 11:23:16;;;;;;;10.57;10.07;;;12.00;49.90;;;;;;4978209;28;20600;-56
2022/11/14 11:25:42;;;;;;;10.70;10.27;;;12.00;48.30;;;;;;4976898;28;20488;-58
2022/11/14 11:28:18;;;;;;;10.77;10.27;;;12.00;47.50;;;;;;4978677;28;20523;-57
2022/11/14 11:30:59;;;;;;;9.93;9.63;;;12.10;46.40;;;;;;4976968;28;20232;-58
2022/11/14 11:33:28;;;;;;;10.73;9.93;;;12.00;46.40;;;;;;4975820;28;20798;-58
2022/11/14 11:36:02;;;;;;;10.37;9.90;;;11.90;46.50;;;;;;4978777;28;20531;-57
2022/11/14 11:38:30;;;;;;;10.20;9.70;;;11.90;46.50;;;;;;4977208;28;20813;-57
2022/11/14 11:41:34;;;;;;;10.40;10.00;;;11.90;46.90;;;;;;4976786;28;20461;-58
2022/11/14 11:44:04;;;;;;;9.23;8.93;;;11.90;46.40;;;;;;4977531;28;20460;-58
2022/11/14 11:46:59;;;;;;;9.13;8.83;;;11.90;47.20;;;;;;4976668;28;21083;-52
2022/11/14 11:49:34;;;;;;;9.63;9.33;;;11.90;46.60;;;;;;4976141;28;20461;-53
2022/11/14 11:52:21;;;;;;;10.07;9.67;;;12.00;46.20;;;;;;4977308;28;20510;-55
2022/11/14 11:55:01;;;;;;;10.50;10.10;;;12.00;46.20;;;;;;4976838;28;20464;-51
2022/11/14 11:57:34;;;;;;;10.27;9.83;;;12.10;46.20;;;;;;4976346;28;20479;-54
2022/11/14 12:00:27;;;;;;;10.13;9.73;;;12.10;46.10;;;;;;4976770;28;21354;-52
2022/11/14 12:02:53;;;;;;;10.90;10.30;;;12.10;46.10;;;;;;4975852;28;20449;-54
2022/11/14 12:05:56;;;;;;;9.57;9.17;;;12.10;45.80;;;;;;4975760;28;20449;-51
2022/11/14 12:08:37;;;;;;;10.10;9.70;;;12.00;45.50;;;;;;4975987;28;21355;-53
2022/11/14 12:11:08;;;;;;;10.00;9.60;;;12.00;45.50;;;;;;4974250;28;20445;-50
2022/11/14 12:14:08;;;;;;;9.50;9.20;;;12.00;45.40;;;;;;4976305;28;20437;-55
2022/11/14 12:16:53;;;;;;;9.63;9.27;;;12.00;45.30;;;;;;4974561;28;20461;-54
2022/11/14 12:19:21;;;;;;;10.23;9.83;;;12.00;45.50;;;;;;4974496;28;20441;-54
2022/11/14 12:21:47;;;;;;;9.47;9.17;;;12.00;45.80;;;;;;4975314;28;20533;-52
2022/11/14 12:24:21;;;;;;;9.60;9.20;;;12.10;46.40;;;;;;4974928;28;20453;-54
2022/11/14 12:27:11;;;;;;;9.80;9.07;;;12.00;44.30;;;;;;4975812;28;20283;-53
2022/11/14 12:29:56;;;;;;;9.07;8.77;;;12.00;44.50;;;;;;4974711;28;20441;-52
2022/11/14 12:32:31;;;;;;;9.60;9.20;;;12.10;44.30;;;;;;4972910;28;20449;-53
2022/11/14 12:34:58;;;;;;;9.00;8.70;;;12.10;43.50;;;;;;4974932;28;20481;-52
2022/11/14 12:37:46;;;;;;;10.00;9.50;;;12.20;44.20;;;;;;4977436;28;20855;-52
2022/11/14 12:40:33;;;;;;;9.80;9.40;;;12.30;44.00;;;;;;4973696;28;20503;-52
2022/11/14 12:43:00;;;;;;;9.73;9.43;;;12.40;43.70;;;;;;4975577;28;20461;-55
2022/11/14 12:45:38;;;;;;;10.30;9.80;;;12.50;44.20;;;;;;4976467;28;20465;-57
2022/11/14 12:48:13;;;;;;;10.50;10.10;;;12.50;42.30;;;;;;4980027;28;20463;-58
2022/11/14 12:50:41;;;;;;;10.43;10.03;;;12.60;42.00;;;;;;4980523;28;20456;-58